Time;durP1;ratioP1;P1;durP2;ratioP2;P2;SDS_P1;SDS_P2;PMS_P1;PMS_P2;Temp;Humidity;BMP_temperature;BMP_pressure;BME280_temperature;BME280_humidity;BME280_pressure;Samples;Min_cycle;Max_cycle;Signal;HPM_P1;HPM_P2
2022/08/30 00:03:21;;;;;;;5.25;3.00;;;;;;;15.10;84.82;101335.78;5002118;28;20033;-82
2022/08/30 00:05:48;;;;;;;7.60;3.10;;;;;;;15.08;84.86;101331.59;5000990;28;20049;-82
2022/08/30 00:08:14;;;;;;;8.82;2.80;;;;;;;15.04;85.01;101331.06;4995212;28;20085;-81
2022/08/30 00:10:43;;;;;;;9.93;3.30;;;;;;;15.02;85.06;101333.03;5005414;28;20030;-82
2022/08/30 00:13:13;;;;;;;6.00;3.08;;;;;;;14.95;85.49;101338.16;4976427;28;20069;-82
2022/08/30 00:15:40;;;;;;;4.85;2.50;;;;;;;14.93;85.59;101340.13;5001858;28;20030;-81
2022/08/30 00:18:06;;;;;;;7.43;3.10;;;;;;;14.98;85.61;101342.31;4995262;28;20085;-82
2022/08/30 00:20:35;;;;;;;5.88;3.10;;;;;;;14.98;85.55;101342.31;4989739;28;20038;-81
2022/08/30 00:23:01;;;;;;;4.93;3.10;;;;;;;15.03;85.38;101348.03;4985697;28;20100;-80
2022/08/30 00:25:26;;;;;;;7.53;3.33;;;;;;;15.03;85.27;101345.38;4989890;28;20038;-82
2022/08/30 00:27:53;;;;;;;7.00;3.38;;;;;;;15.06;85.31;101350.41;4992231;28;20049;-84
2022/08/30 00:30:20;;;;;;;9.65;2.92;;;;;;;15.12;85.02;101348.94;4989501;28;20034;-83
2022/08/30 00:32:47;;;;;;;8.88;2.90;;;;;;;15.20;84.41;101357.00;5000570;28;20065;-83
2022/08/30 00:35:16;;;;;;;6.32;2.92;;;;;;;15.29;83.87;101357.09;4989144;28;20054;-83
2022/08/30 00:37:43;;;;;;;6.22;3.03;;;;;;;15.28;83.55;101356.25;5020517;28;20564;-83
2022/08/30 00:40:11;;;;;;;10.43;3.60;;;;;;;15.22;83.67;101349.72;4986434;28;20030;-83
2022/08/30 00:42:38;;;;;;;8.65;3.50;;;;;;;15.17;83.97;101352.00;4972447;28;20034;-82
2022/08/30 00:45:13;;;;;;;6.10;3.13;;;;;;;15.06;83.84;101361.03;5006104;28;20041;-82
2022/08/30 00:47:39;;;;;;;5.93;2.88;;;;;;;14.96;84.25;101366.44;5010376;28;20031;-81
2022/08/30 00:50:07;;;;;;;7.38;2.90;;;;;;;14.92;84.25;101367.72;4981967;28;20101;-83
2022/08/30 00:52:34;;;;;;;5.10;2.53;;;;;;;14.90;84.61;101369.69;4989242;28;20039;-82
2022/08/30 00:55:02;;;;;;;7.97;3.10;;;;;;;14.85;84.66;101362.16;4988840;28;20049;-82
2022/08/30 00:57:29;;;;;;;6.45;3.10;;;;;;;14.84;84.53;101365.78;5011441;28;20488;-83
2022/08/30 00:59:55;;;;;;;7.13;3.58;;;;;;;14.80;84.77;101367.09;4999602;28;20034;-81
2022/08/30 01:02:22;;;;;;;6.50;2.88;;;;;;;14.79;84.80;101368.09;4970589;28;20031;-81
2022/08/30 01:04:50;;;;;;;7.30;3.13;;;;;;;14.81;84.83;101365.28;4997931;28;20030;-82
2022/08/30 01:07:17;;;;;;;4.82;3.35;;;;;;;14.82;84.46;101367.78;4988888;28;20055;-83
2022/08/30 01:09:43;;;;;;;7.13;3.28;;;;;;;14.85;84.40;101356.84;5019133;28;20049;-82
2022/08/30 01:12:10;;;;;;;7.43;3.45;;;;;;;14.86;84.05;101358.50;4974332;28;20034;-82
2022/08/30 01:14:36;;;;;;;6.93;3.50;;;;;;;14.82;84.49;101362.47;4976512;28;20535;-82
2022/08/30 01:17:03;;;;;;;6.30;2.92;;;;;;;14.79;84.54;101360.09;4973547;28;20034;-83
2022/08/30 01:19:40;;;;;;;4.18;2.85;;;;;;;14.83;84.41;101366.78;4967838;28;20034;-83
2022/08/30 01:22:33;;;;;;;7.03;3.50;;;;;;;14.83;84.20;101363.28;5000488;28;20050;-83
2022/08/30 01:25:00;;;;;;;7.50;3.78;;;;;;;14.83;84.27;101363.28;4956890;28;20035;-83
2022/08/30 01:27:27;;;;;;;7.40;3.33;;;;;;;14.80;84.25;101363.59;5012594;28;20125;-82
2022/08/30 01:29:56;;;;;;;8.75;3.30;;;;;;;14.71;84.60;101366.16;5002953;28;20077;-83
2022/08/30 01:32:27;;;;;;;6.65;3.45;;;;;;;14.66;85.10;101357.75;5000886;28;20519;-83
2022/08/30 01:34:54;;;;;;;7.60;3.28;;;;;;;14.55;85.53;101356.16;4979550;28;20030;-82
2022/08/30 01:37:29;;;;;;;6.72;3.25;;;;;;;14.47;85.84;101358.69;4955182;28;20096;-81
2022/08/30 01:39:55;;;;;;;6.40;2.90;;;;;;;14.36;86.91;101359.72;4987394;28;20031;-82
2022/08/30 01:42:21;;;;;;;6.97;3.28;;;;;;;14.27;87.30;101348.97;4969137;28;20037;-83
2022/08/30 01:44:47;;;;;;;8.13;3.65;;;;;;;14.16;88.01;101356.31;5003374;28;20026;-83
2022/08/30 01:47:14;;;;;;;7.13;3.60;;;;;;;14.13;88.47;101360.94;4987211;28;20038;-82
2022/08/30 01:49:40;;;;;;;4.78;3.10;;;;;;;14.11;88.78;101356.75;4978658;28;20465;-84
2022/08/30 01:52:07;;;;;;;9.57;3.90;;;;;;;14.09;89.05;101356.91;4995820;28;20039;-84
2022/08/30 01:54:35;;;;;;;13.68;3.90;;;;;;;14.09;89.27;101350.75;4997304;28;20061;-83
2022/08/30 01:57:02;;;;;;;8.35;3.10;;;;;;;14.08;89.36;101357.06;4984098;28;20046;-82
2022/08/30 01:59:28;;;;;;;8.65;3.63;;;;;;;14.12;89.53;101358.44;5001984;28;20041;-84
2022/08/30 02:01:53;;;;;;;17.42;4.28;;;;;;;14.12;89.34;101361.94;4984963;28;20034;-83
2022/08/30 02:04:19;;;;;;;8.98;3.42;;;;;;;14.13;89.75;101362.75;4975314;28;20401;-83
2022/08/30 02:06:45;;;;;;;10.02;3.80;;;;;;;14.10;89.69;101352.41;4964086;28;20051;-82
2022/08/30 02:09:12;;;;;;;8.82;3.40;;;;;;;14.12;90.00;101355.75;5019567;28;20038;-83
2022/08/30 02:11:38;;;;;;;9.07;3.50;;;;;;;14.14;89.83;101357.28;5002417;28;20098;-83
2022/08/30 02:14:05;;;;;;;11.25;3.78;;;;;;;14.14;90.13;101357.28;4986770;28;20050;-83
2022/08/30 02:16:31;;;;;;;7.90;3.67;;;;;;;14.14;90.16;101357.28;5001930;28;20027;-83
2022/08/30 02:18:57;;;;;;;11.57;3.92;;;;;;;14.21;90.28;101356.69;5006901;28;20041;-83
2022/08/30 02:21:24;;;;;;;7.78;3.53;;;;;;;14.27;90.08;101358.78;4966142;28;20537;-84
2022/08/30 02:23:51;;;;;;;8.27;3.97;;;;;;;14.27;89.87;101348.97;4997337;28;20030;-83
2022/08/30 02:26:17;;;;;;;8.57;4.55;;;;;;;14.26;90.19;101360.63;4983652;28;20050;-83
2022/08/30 02:28:44;;;;;;;5.72;3.80;;;;;;;14.25;90.13;101353.59;4971850;28;20034;-79
2022/08/30 02:31:10;;;;;;;10.95;3.83;;;;;;;14.25;90.38;101356.25;5022656;28;20547;-79
2022/08/30 02:33:36;;;;;;;7.18;3.90;;;;;;;14.31;90.39;101354.00;5017010;28;20093;-83
2022/08/30 02:36:04;;;;;;;7.38;3.65;;;;;;;14.32;90.26;101353.00;4981200;28;20066;-82
2022/08/30 02:38:30;;;;;;;9.77;3.70;;;;;;;14.30;90.41;101360.31;4988205;28;20449;-82
2022/08/30 02:40:56;;;;;;;9.93;4.20;;;;;;;14.33;90.40;101358.22;4983963;28;20085;-84
2022/08/30 02:43:22;;;;;;;5.55;3.50;;;;;;;14.39;90.26;101354.97;4989707;28;20061;-83
2022/08/30 02:45:47;;;;;;;7.90;4.13;;;;;;;14.42;89.83;101360.97;5005909;28;20035;-83
2022/08/30 02:48:14;;;;;;;8.75;3.80;;;;;;;14.42;90.02;101360.97;4973670;28;20022;-83
2022/08/30 02:50:44;;;;;;;8.48;4.50;;;;;;;14.43;89.87;101371.44;5000309;28;20114;-83
2022/08/30 02:53:10;;;;;;;6.68;4.10;;;;;;;14.42;89.80;101368.94;4985620;28;20459;-83
2022/08/30 02:55:36;;;;;;;8.63;3.63;;;;;;;14.45;89.99;101369.50;5002868;28;20069;-83
2022/08/30 02:58:02;;;;;;;6.85;3.40;;;;;;;14.39;89.74;101375.41;4990828;28;20068;-84
2022/08/30 03:00:28;;;;;;;8.82;4.30;;;;;;;14.23;90.15;101376.88;5002149;28;20042;-83
2022/08/30 03:02:54;;;;;;;8.00;3.88;;;;;;;14.16;90.99;101380.25;4994177;28;20050;-83
2022/08/30 03:05:20;;;;;;;5.43;3.53;;;;;;;14.21;91.21;101384.13;4944242;28;20027;-82
2022/08/30 03:07:46;;;;;;;6.68;3.58;;;;;;;14.26;90.65;101375.72;4999220;28;20047;-83
2022/08/30 03:10:14;;;;;;;5.68;3.53;;;;;;;14.29;90.22;101383.41;4911346;28;20062;-82
2022/08/30 03:12:40;;;;;;;11.80;4.30;;;;;;;14.33;89.74;101384.81;4967125;28;20041;-82
2022/08/30 03:15:07;;;;;;;6.30;3.70;;;;;;;14.40;89.54;101382.38;5001641;28;20042;-82
2022/08/30 03:17:33;;;;;;;8.77;4.10;;;;;;;14.35;89.05;101379.34;4994841;28;20046;-82
2022/08/30 03:20:01;;;;;;;7.32;4.38;;;;;;;14.30;88.98;101381.59;4971260;28;20538;-83
2022/08/30 03:22:27;;;;;;;10.65;4.40;;;;;;;14.27;89.21;101386.22;4984316;28;20099;-83
2022/08/30 03:24:58;;;;;;;4.18;3.58;;;;;;;14.22;89.22;101383.16;4976073;28;20031;-82
2022/08/30 03:27:25;;;;;;;6.25;3.90;;;;;;;14.20;89.28;101378.97;4948476;28;20468;-82
2022/08/30 03:29:51;;;;;;;7.95;4.55;;;;;;;14.17;89.43;101380.09;5001590;28;20097;-82
2022/08/30 03:32:18;;;;;;;6.93;4.43;;;;;;;14.17;89.27;101380.09;5002682;28;20047;-82
2022/08/30 03:34:43;;;;;;;8.27;4.38;;;;;;;14.15;89.46;101384.72;5015208;28;20169;-83
2022/08/30 03:37:09;;;;;;;6.18;4.40;;;;;;;14.17;89.15;101388.09;4970444;28;20122;-82
2022/08/30 03:39:35;;;;;;;10.35;3.67;;;;;;;14.19;89.03;101388.75;5018348;28;20046;-83
2022/08/30 03:42:01;;;;;;;10.90;4.70;;;;;;;14.21;89.13;101388.59;4951875;28;20077;-82
2022/08/30 03:44:27;;;;;;;5.55;3.83;;;;;;;14.26;88.72;101387.22;4976573;28;20058;-83
2022/08/30 03:46:53;;;;;;;7.38;4.43;;;;;;;14.29;88.35;101385.22;4967184;28;20070;-82
2022/08/30 03:49:19;;;;;;;6.78;3.78;;;;;;;14.26;88.16;101392.53;4996794;28;20039;-82
2022/08/30 03:51:47;;;;;;;10.32;4.40;;;;;;;14.26;88.23;101397.00;4981741;28;20042;-83
2022/08/30 03:54:13;;;;;;;5.95;3.63;;;;;;;14.16;88.27;101394.38;5004400;28;20121;-83
2022/08/30 03:56:39;;;;;;;6.32;4.00;;;;;;;14.14;88.69;101394.50;4971184;28;20134;-83
2022/08/30 03:59:06;;;;;;;6.55;4.15;;;;;;;14.19;88.55;101393.25;4999402;28;20113;-83
2022/08/30 04:01:32;;;;;;;5.45;3.83;;;;;;;14.22;87.77;101388.47;4979334;28;20069;-83
2022/08/30 04:03:57;;;;;;;6.18;3.28;;;;;;;14.26;87.19;101399.66;4999333;28;20069;-82
2022/08/30 04:06:23;;;;;;;6.38;3.58;;;;;;;14.25;86.99;101388.16;4976426;28;20487;-83
2022/08/30 04:08:49;;;;;;;7.82;3.90;;;;;;;14.22;86.68;101388.47;5006548;28;20052;-82
2022/08/30 04:11:15;;;;;;;6.88;3.65;;;;;;;14.22;86.65;101385.81;4982944;28;20053;-82
2022/08/30 04:13:42;;;;;;;5.32;3.83;;;;;;;14.21;86.50;101391.28;4983606;28;20501;-82
2022/08/30 04:16:07;;;;;;;7.60;4.20;;;;;;;14.21;86.06;101386.78;4991690;28;20064;-82
2022/08/30 04:18:34;;;;;;;5.47;4.25;;;;;;;14.19;86.06;101385.28;4991423;28;20437;-82
2022/08/30 04:21:00;;;;;;;6.35;4.07;;;;;;;14.21;86.05;101389.47;5006844;28;20061;-83
2022/08/30 04:23:27;;;;;;;8.10;4.40;;;;;;;14.21;85.86;101391.28;5007278;28;20038;-82
2022/08/30 04:25:53;;;;;;;5.65;4.32;;;;;;;14.20;86.03;101389.59;5008149;28;20477;-83
2022/08/30 04:28:19;;;;;;;8.98;4.25;;;;;;;14.16;85.94;101378.41;5012266;28;20057;-83
2022/08/30 04:30:45;;;;;;;6.55;3.95;;;;;;;14.12;86.00;101369.91;4956980;28;20507;-82
2022/08/30 04:33:13;;;;;;;8.00;4.65;;;;;;;14.08;86.17;101373.00;4966859;28;20038;-83
2022/08/30 04:35:43;;;;;;;8.10;4.43;;;;;;;14.04;86.57;101374.25;4973557;28;20034;-82
2022/08/30 04:38:10;;;;;;;9.38;3.95;;;;;;;13.99;86.96;101378.19;5005000;28;20084;-83
2022/08/30 04:40:36;;;;;;;8.27;3.70;;;;;;;13.99;86.84;101383.50;4986750;28;20795;-83
2022/08/30 04:43:03;;;;;;;5.55;3.75;;;;;;;14.00;86.98;101379.00;4993892;28;20492;-83
2022/08/30 04:45:29;;;;;;;7.93;4.03;;;;;;;14.00;86.55;101381.66;5003623;28;20052;-83
2022/08/30 04:47:54;;;;;;;8.57;4.22;;;;;;;14.00;86.80;101382.53;4999513;28;20033;-83
2022/08/30 04:50:20;;;;;;;9.23;4.15;;;;;;;14.04;86.81;101382.22;4977241;28;20085;-83
2022/08/30 04:52:46;;;;;;;5.80;4.20;;;;;;;14.10;86.22;101384.31;4996001;28;20038;-82
2022/08/30 04:55:13;;;;;;;7.30;3.33;;;;;;;14.09;86.07;101395.94;4975979;28;20034;-82
2022/08/30 04:57:40;;;;;;;6.38;3.40;;;;;;;14.12;85.92;101406.28;4974201;28;20038;-82
2022/08/30 05:00:10;;;;;;;5.35;3.65;;;;;;;14.15;85.27;101406.00;5020867;28;20038;-82
2022/08/30 05:02:36;;;;;;;6.50;3.88;;;;;;;14.14;84.95;101413.13;4999763;28;20057;-82
2022/08/30 05:07:46;;;;;;;6.60;3.80;;;;;;;14.15;84.48;101419.28;5001577;28;20057;-83
2022/08/30 05:10:12;;;;;;;7.13;3.75;;;;;;;14.11;84.56;101424.03;5008654;28;20038;-82
2022/08/30 05:12:38;;;;;;;5.25;3.40;;;;;;;14.04;84.64;101427.41;4988585;28;20064;-82
2022/08/30 05:15:05;;;;;;;5.13;3.88;;;;;;;13.98;84.82;101434.97;5003039;28;20378;-82
2022/08/30 05:17:31;;;;;;;10.68;4.03;;;;;;;13.89;85.15;101438.47;5005617;28;20038;-82
2022/08/30 05:19:56;;;;;;;9.48;4.40;;;;;;;13.80;85.41;101437.53;5010397;28;20164;-83
2022/08/30 05:22:22;;;;;;;6.13;4.10;;;;;;;13.64;85.88;101438.94;5004596;28;20066;-82
2022/08/30 05:24:48;;;;;;;8.27;4.40;;;;;;;13.47;86.95;101439.59;4982043;28;20057;-82
2022/08/30 05:27:14;;;;;;;8.02;4.57;;;;;;;13.31;87.66;101451.59;4976070;28;20052;-82
2022/08/30 05:29:40;;;;;;;5.85;3.92;;;;;;;13.21;88.41;101451.59;5010172;28;20037;-83
2022/08/30 05:32:07;;;;;;;6.75;3.92;;;;;;;13.17;88.91;101454.66;5001033;28;20046;-83
2022/08/30 05:34:33;;;;;;;5.35;3.80;;;;;;;13.14;89.12;101450.44;4996107;28;20668;-82
2022/08/30 05:37:01;;;;;;;4.72;4.15;;;;;;;13.19;88.91;101450.88;4999223;28;20042;-83
2022/08/30 05:39:29;;;;;;;4.53;4.05;;;;;;;13.17;89.16;101452.81;5001000;28;20507;-83
2022/08/30 05:41:56;;;;;;;7.40;4.18;;;;;;;13.20;88.94;101452.56;4998538;28;20400;-82
2022/08/30 05:44:22;;;;;;;10.60;4.63;;;;;;;13.19;89.14;101461.50;5017797;28;20030;-82
2022/08/30 05:46:48;;;;;;;6.05;4.07;;;;;;;13.13;89.38;101454.94;5006405;28;20036;-83
2022/08/30 05:49:14;;;;;;;5.50;4.55;;;;;;;13.11;89.38;101471.94;4983444;28;20053;-82
2022/08/30 05:51:40;;;;;;;8.32;4.45;;;;;;;13.00;89.46;101463.13;5010439;28;20159;-83
2022/08/30 05:54:06;;;;;;;6.00;4.60;;;;;;;12.97;89.88;101463.41;4924977;28;20068;-83
2022/08/30 05:56:36;;;;;;;5.75;4.57;;;;;;;12.96;90.07;101467.03;4992640;28;20039;-83
2022/08/30 05:59:05;;;;;;;6.82;4.55;;;;;;;12.97;90.10;101475.81;4984825;28;20034;-82
2022/08/30 06:01:34;;;;;;;6.07;4.22;;;;;;;12.96;90.52;101463.53;5007462;28;20129;-82
2022/08/30 06:04:03;;;;;;;6.57;4.18;;;;;;;12.98;90.22;101477.53;4977966;28;20043;-83
2022/08/30 06:06:32;;;;;;;7.05;4.70;;;;;;;13.01;90.14;101483.38;4985639;28;20072;-84
2022/08/30 06:08:57;;;;;;;8.63;3.92;;;;;;;13.02;90.34;101477.13;4977496;28;20038;-82
2022/08/30 06:11:24;;;;;;;11.73;4.38;;;;;;;13.03;90.18;101477.94;4983105;28;20046;-83
2022/08/30 06:13:52;;;;;;;15.85;5.05;;;;;;;12.99;90.13;101481.84;5002502;28;20109;-82
2022/08/30 06:16:20;;;;;;;5.95;4.03;;;;;;;12.99;90.60;101479.19;4991874;28;20129;-83
2022/08/30 06:18:46;;;;;;;10.13;4.53;;;;;;;13.02;90.51;101482.41;4975378;28;20037;-82
2022/08/30 06:21:21;;;;;;;5.10;3.78;;;;;;;13.09;90.71;101482.69;4999435;28;20080;-82
2022/08/30 06:23:47;;;;;;;6.35;3.88;;;;;;;13.14;90.47;101484.94;5020595;28;20068;-82
2022/08/30 06:26:13;;;;;;;5.32;4.38;;;;;;;13.20;90.31;101481.78;4996056;28;20137;-82
2022/08/30 06:28:39;;;;;;;7.72;4.22;;;;;;;13.27;90.17;101485.56;4988944;28;20117;-82
2022/08/30 06:31:09;;;;;;;6.00;4.70;;;;;;;13.33;90.17;101486.81;5002067;28;20121;-82
2022/08/30 06:33:35;;;;;;;12.40;4.60;;;;;;;13.38;89.67;101491.72;4966732;28;20042;-83
2022/08/30 06:36:07;;;;;;;5.78;4.25;;;;;;;13.44;90.26;101499.13;4956189;28;21852;-81
2022/08/30 06:38:34;;;;;;;6.78;3.83;;;;;;;13.51;90.12;101496.78;4986796;28;20097;-82
2022/08/30 06:41:03;;;;;;;5.82;4.47;;;;;;;13.57;90.43;101496.25;4997311;28;20593;-82
2022/08/30 06:43:29;;;;;;;8.55;4.93;;;;;;;13.65;90.17;101500.84;4991917;28;20045;-82
2022/08/30 06:45:55;;;;;;;8.27;4.45;;;;;;;13.73;90.40;101503.66;4973385;28;20026;-82
2022/08/30 06:48:21;;;;;;;5.65;5.05;;;;;;;13.82;90.36;101498.50;5001447;28;20030;-83
2022/08/30 06:50:52;;;;;;;13.27;4.32;;;;;;;13.90;90.23;101503.97;4989793;28;20030;-82
2022/08/30 06:53:18;;;;;;;5.05;4.30;;;;;;;13.97;90.19;101512.19;4954047;28;20042;-83
2022/08/30 06:55:44;;;;;;;7.93;4.53;;;;;;;14.05;90.62;101524.81;4989053;28;20589;-82
2022/08/30 06:58:09;;;;;;;8.65;4.72;;;;;;;14.12;90.75;101520.59;4995897;28;20038;-82
2022/08/30 07:00:35;;;;;;;7.95;5.32;;;;;;;14.23;91.21;101527.59;4984354;28;20038;-83
2022/08/30 07:03:01;;;;;;;7.22;5.32;;;;;;;14.31;91.02;101524.22;4991253;28;20034;-81
2022/08/30 07:05:27;;;;;;;8.55;5.10;;;;;;;14.36;91.39;101529.94;5009006;28;20511;-82
2022/08/30 07:07:53;;;;;;;6.57;4.38;;;;;;;14.43;91.70;101527.56;4988185;28;20050;-82
2022/08/30 07:10:20;;;;;;;7.43;4.45;;;;;;;14.46;91.79;101528.09;4950237;28;20038;-82
2022/08/30 07:12:47;;;;;;;8.02;4.60;;;;;;;14.49;92.11;101537.63;4981396;28;20037;-81
2022/08/30 07:15:12;;;;;;;7.35;4.35;;;;;;;14.62;92.41;101540.00;4963752;28;20081;-82
2022/08/30 07:20:22;;;;;;;7.30;4.07;;;;;;;14.94;92.51;101537.94;4987730;28;20038;-81
2022/08/30 07:22:48;;;;;;;7.75;4.15;;;;;;;15.15;92.64;101535.03;4990525;28;20045;-83
2022/08/30 07:25:14;;;;;;;7.45;4.22;;;;;;;15.40;92.98;101537.97;4984562;28;20037;-82
2022/08/30 07:27:41;;;;;;;6.80;3.63;;;;;;;15.65;92.96;101537.41;5001547;28;20034;-83
2022/08/30 07:30:08;;;;;;;4.40;3.85;;;;;;;15.87;92.03;101530.81;5000121;28;20038;-83
2022/08/30 07:32:34;;;;;;;5.25;4.10;;;;;;;15.98;91.46;101540.41;4964988;28;20072;-82
2022/08/30 07:34:59;;;;;;;6.50;3.70;;;;;;;16.04;91.03;101536.31;4983265;28;20050;-82
2022/08/30 07:37:25;;;;;;;5.75;3.65;;;;;;;16.11;91.04;101535.56;4965657;28;20182;-84
2022/08/30 07:39:51;;;;;;;6.72;3.95;;;;;;;16.25;90.70;101543.97;4985634;28;20077;-82
2022/08/30 07:42:17;;;;;;;5.22;3.70;;;;;;;16.35;89.99;101535.88;4977838;28;20097;-81
2022/08/30 07:44:43;;;;;;;6.85;3.30;;;;;;;16.49;89.37;101539.81;4999839;28;20461;-80
2022/08/30 07:47:09;;;;;;;5.10;3.22;;;;;;;16.53;88.56;101535.00;4979248;28;20058;-80
2022/08/30 07:49:36;;;;;;;7.50;3.42;;;;;;;16.47;88.08;101537.28;4984729;28;20053;-82
2022/08/30 07:52:03;;;;;;;7.88;3.40;;;;;;;16.40;87.83;101543.41;4980486;28;20610;-82
2022/08/30 07:54:28;;;;;;;4.50;3.35;;;;;;;16.32;87.45;101542.38;4975645;28;20720;-82
2022/08/30 07:56:54;;;;;;;5.40;3.30;;;;;;;16.22;87.06;101545.13;4988422;28;20042;-83
2022/08/30 07:59:22;;;;;;;6.20;3.35;;;;;;;16.18;86.88;101540.25;5003023;28;20185;-82
2022/08/30 08:01:47;;;;;;;6.38;3.50;;;;;;;16.09;86.69;101542.84;4985836;28;20034;-82
2022/08/30 08:04:13;;;;;;;6.35;3.95;;;;;;;16.01;86.80;101550.78;4954224;28;20034;-83
2022/08/30 08:06:40;;;;;;;6.45;3.63;;;;;;;15.98;87.01;101551.94;4991357;28;21429;-82
2022/08/30 08:09:07;;;;;;;3.97;3.58;;;;;;;15.99;87.25;101553.59;5008754;28;20041;-82
2022/08/30 08:11:34;;;;;;;3.75;3.45;;;;;;;16.01;87.20;101545.44;5003255;28;20502;-83
2022/08/30 08:14:00;;;;;;;6.93;3.92;;;;;;;16.05;87.15;101554.84;4965391;28;20037;-82
2022/08/30 08:16:28;;;;;;;4.13;3.72;;;;;;;16.13;87.09;101551.41;4966943;28;20033;-84
2022/08/30 08:18:54;;;;;;;5.95;3.65;;;;;;;16.12;87.10;101552.38;4987368;28;20048;-84
2022/08/30 08:21:22;;;;;;;6.45;4.05;;;;;;;16.13;86.97;101559.41;4972826;28;20030;-82
2022/08/30 08:23:49;;;;;;;6.50;3.55;;;;;;;16.18;86.98;101561.59;5018992;28;20518;-83
2022/08/30 08:26:14;;;;;;;9.10;4.07;;;;;;;16.23;86.96;101561.94;4989221;28;20443;-81
2022/08/30 08:28:40;;;;;;;7.80;3.40;;;;;;;16.28;86.89;101559.66;4989019;28;20038;-83
2022/08/30 08:31:15;;;;;;;7.10;3.90;;;;;;;16.37;86.51;101568.59;4987810;28;20133;-84
2022/08/30 08:33:41;;;;;;;6.45;3.58;;;;;;;16.39;86.54;101563.09;4985120;28;20029;-83
2022/08/30 08:36:07;;;;;;;9.40;3.67;;;;;;;16.40;85.83;101568.28;4981136;28;20448;-84
2022/08/30 08:38:32;;;;;;;5.85;3.33;;;;;;;16.45;85.68;101571.31;5000411;28;20041;-84
2022/08/30 08:41:13;;;;;;;4.85;3.28;;;;;;;16.52;85.06;101565.34;4969070;28;20038;-81
2022/08/30 08:43:40;;;;;;;7.22;3.38;;;;;;;16.57;85.19;101571.06;4989728;28;20029;-81
2022/08/30 08:46:19;;;;;;;6.25;3.40;;;;;;;16.69;84.86;101566.31;4982357;28;20506;-82
2022/08/30 08:48:50;;;;;;;5.30;3.15;;;;;;;16.79;84.46;101566.16;5003611;28;20046;-83
2022/08/30 08:54:13;;;;;;;7.75;2.70;;;;;;;16.88;83.50;101570.59;4997357;28;20066;-83
2022/08/30 08:56:39;;;;;;;5.32;2.38;;;;;;;16.86;83.16;101565.41;5002868;28;20041;-82
2022/08/30 08:59:10;;;;;;;3.15;2.50;;;;;;;16.86;82.70;101567.22;4986081;28;20034;-84
2022/08/30 09:01:40;;;;;;;3.25;2.70;;;;;;;16.88;82.76;101559.91;5004230;28;20476;-83
2022/08/30 09:04:18;;;;;;;3.47;2.17;;;;;;;16.98;82.07;101567.78;4990206;28;20105;-81
2022/08/30 09:07:02;;;;;;;4.50;2.42;;;;;;;17.05;81.41;101560.81;4997057;28;20146;-80
2022/08/30 09:09:36;;;;;;;6.68;3.45;;;;;;;17.10;80.97;101563.84;5004736;28;20088;-81
2022/08/30 09:12:04;;;;;;;6.60;2.42;;;;;;;17.16;80.55;101556.22;4967942;28;20041;-82
2022/08/30 09:14:35;;;;;;;5.15;2.50;;;;;;;17.24;80.25;101556.25;5003280;28;20487;-81
2022/08/30 09:17:10;;;;;;;4.47;2.65;;;;;;;17.27;79.53;101561.28;4969870;28;20065;-82
2022/08/30 09:19:50;;;;;;;2.67;1.95;;;;;;;17.27;79.23;101566.59;4971580;28;20092;-86
2022/08/30 09:22:33;;;;;;;1.98;1.33;;;;;;;17.35;78.19;101569.31;4965848;28;20037;-81
2022/08/30 09:25:05;;;;;;;4.32;1.70;;;;;;;17.53;78.10;101570.19;4986973;28;20084;-85
2022/08/30 09:27:37;;;;;;;3.75;1.15;;;;;;;17.59;76.62;101574.91;4987563;28;20124;-83
2022/08/30 09:30:06;;;;;;;2.25;1.30;;;;;;;17.65;76.24;101578.75;4993636;28;20041;-81
2022/08/30 09:32:41;;;;;;;2.67;1.65;;;;;;;17.76;75.56;101574.94;5009441;28;20195;-82
2022/08/30 09:35:17;;;;;;;5.80;2.38;;;;;;;17.73;75.04;101566.25;4992024;28;20082;-81
2022/08/30 09:37:51;;;;;;;4.32;1.30;;;;;;;17.67;74.62;101569.56;5009137;28;20099;-83
2022/08/30 09:40:25;;;;;;;2.42;1.27;;;;;;;17.73;74.65;101563.56;4984511;28;20057;-81
2022/08/30 09:43:06;;;;;;;2.45;1.20;;;;;;;17.84;73.59;101562.41;5007116;28;20049;-83
2022/08/30 09:45:41;;;;;;;4.00;1.17;;;;;;;17.92;73.26;101558.91;4986592;28;20034;-79
2022/08/30 09:48:28;;;;;;;7.47;1.70;;;;;;;17.91;72.46;101559.06;4988008;28;20072;-81
2022/08/30 09:51:09;;;;;;;2.75;1.50;;;;;;;17.94;73.00;101551.56;4941103;28;20038;-82
2022/08/30 09:54:15;;;;;;;4.10;1.48;;;;;;;18.06;72.78;101551.25;4974793;28;20165;-82
2022/08/30 09:57:16;;;;;;;2.50;1.35;;;;;;;18.23;71.85;101552.09;4971694;28;20070;-80
2022/08/30 09:59:56;;;;;;;3.58;1.27;;;;;;;18.37;71.49;101547.06;4943359;28;20038;-81
2022/08/30 10:02:38;;;;;;;2.95;1.17;;;;;;;18.44;70.81;101543.53;4967986;28;20054;-80
2022/08/30 10:05:28;;;;;;;1.10;1.00;;;;;;;18.49;69.47;101544.88;5007530;28;20196;-81
2022/08/30 10:08:17;;;;;;;7.15;1.48;;;;;;;18.56;69.73;101538.66;4993068;28;20093;-79
2022/08/30 10:10:58;;;;;;;5.82;1.38;;;;;;;18.63;69.31;101536.16;4973012;28;20400;-80
2022/08/30 10:13:48;;;;;;;2.10;1.13;;;;;;;18.69;68.78;101546.19;4986789;28;20097;-81
2022/08/30 10:16:44;;;;;;;3.50;1.00;;;;;;;18.85;68.62;101544.44;5008376;28;20136;-82
2022/08/30 10:19:34;;;;;;;3.42;1.00;;;;;;;18.90;66.65;101539.41;5001152;28;20034;-80
2022/08/30 10:22:15;;;;;;;3.40;1.00;;;;;;;19.00;66.89;101541.06;4994113;28;20045;-81
2022/08/30 10:24:49;;;;;;;1.85;1.00;;;;;;;18.97;66.97;101551.09;5007617;28;20046;-81
2022/08/30 10:27:41;;;;;;;2.30;1.15;;;;;;;18.93;65.72;101543.59;4973843;28;20064;-80
2022/08/30 10:30:12;;;;;;;9.48;1.80;;;;;;;19.09;66.21;101540.03;4957255;28;20181;-80
2022/08/30 10:33:03;;;;;;;5.88;1.20;;;;;;;19.29;65.17;101537.75;4990628;28;20042;-79
2022/08/30 10:35:40;;;;;;;1.92;0.70;;;;;;;19.49;64.31;101533.78;5003561;28;20038;-81
2022/08/30 10:38:14;;;;;;;3.10;0.55;;;;;;;19.62;63.36;101543.94;5021362;28;20038;-79
2022/08/30 10:43:32;;;;;;;1.92;0.50;;;;;;;19.83;61.61;101535.22;5017018;28;20489;-81
2022/08/30 10:46:02;;;;;;;1.90;0.52;;;;;;;19.91;60.95;101534.34;4973182;28;20045;-79
2022/08/30 10:48:47;;;;;;;1.13;0.75;;;;;;;20.04;59.88;101529.22;5004302;28;20040;-79
2022/08/30 10:51:40;;;;;;;0.80;0.73;;;;;;;20.19;57.23;101533.81;4957548;28;20100;-80
2022/08/30 10:54:18;;;;;;;1.25;0.40;;;;;;;20.15;59.20;101529.81;4965218;28;20073;-80
2022/08/30 10:56:50;;;;;;;1.80;0.50;;;;;;;19.90;60.32;101538.88;5010366;28;20038;-80
2022/08/30 10:59:18;;;;;;;6.28;0.50;;;;;;;19.79;60.03;101528.56;4989636;28;20044;-80
2022/08/30 11:01:52;;;;;;;1.80;0.55;;;;;;;19.92;59.12;101536.03;4998613;28;20062;-80
2022/08/30 11:04:48;;;;;;;1.15;0.50;;;;;;;19.88;58.63;101527.47;4967043;28;20472;-81
2022/08/30 11:07:49;;;;;;;4.30;0.50;;;;;;;19.65;57.84;101517.59;4984369;28;20080;-80
2022/08/30 11:10:24;;;;;;;0.80;0.50;;;;;;;19.59;58.60;101526.34;4972205;28;20026;-80
2022/08/30 11:13:00;;;;;;;2.35;0.40;;;;;;;19.67;59.22;101515.56;5005928;28;20113;-78
2022/08/30 11:15:32;;;;;;;1.05;0.40;;;;;;;19.69;58.60;101513.56;4985010;28;20038;-81
2022/08/30 11:18:12;;;;;;;1.40;0.50;;;;;;;19.58;57.96;101516.63;4974360;28;20069;-79
2022/08/30 11:20:50;;;;;;;8.30;0.52;;;;;;;19.70;57.56;101509.84;5019835;28;20177;-81
2022/08/30 11:23:35;;;;;;;0.82;0.30;;;;;;;19.70;55.68;101517.06;4997719;28;20483;-82
2022/08/30 11:26:06;;;;;;;1.05;0.35;;;;;;;19.70;56.82;101517.06;4989955;28;20026;-83
2022/08/30 11:28:35;;;;;;;2.22;0.40;;;;;;;19.65;56.74;101517.59;4996935;28;20038;-83
2022/08/30 11:31:19;;;;;;;3.83;0.50;;;;;;;19.78;56.42;101508.94;4972535;28;20030;-79
2022/08/30 11:33:57;;;;;;;0.40;0.40;;;;;;;20.09;56.54;101507.22;4984307;28;20041;-80
2022/08/30 11:36:31;;;;;;;3.58;0.40;;;;;;;20.51;55.46;101496.06;4987579;28;20058;-83
2022/08/30 11:39:00;;;;;;;0.63;0.25;;;;;;;20.54;55.03;101498.38;4984847;28;20050;-79
2022/08/30 11:41:34;;;;;;;0.95;0.45;;;;;;;20.41;54.98;101493.66;5005778;28;20022;-80
2022/08/30 11:44:21;;;;;;;3.22;0.50;;;;;;;20.29;53.37;101488.72;4982887;28;20068;-80
2022/08/30 11:46:53;;;;;;;1.23;0.30;;;;;;;20.39;54.52;101485.78;4972513;28;20096;-81
2022/08/30 11:49:34;;;;;;;0.68;0.30;;;;;;;20.52;54.02;101492.34;4971858;28;20038;-81